METAR stanice u blizini

 

LYBE - Beograd / Surčin, Srbija
Ažurirano: 02/12/2023 06:00
Vedro
Vedro
 Pravac vetra JI
Vetar: JI 17 km/h
Temperatura: 16°C
Tačka rose: 7°C
Vlažnost: 55%
Pritisak: 998 hPa
Pregled: Vedro
Vidljivost: greater than 10 km
2023/12/02 05:00 LYBE 020500Z 14009KT CAVOK 16/07 Q0998 NOSIG
LYBT - Beograd / Batajnica, Srbija
Ažurirano: 02/12/2023 06:00
Vedro
Vedro
 Pravac vetra JI
Vetar: JI 13 km/h
Temperatura: 11°C
Tačka rose: 7°C
Vlažnost: 77%
Pritisak: 998 hPa
Pregled: Vedro
Vidljivost: greater than 10 km
2023/12/02 05:00 LYBT 020500Z 13007KT CAVOK 11/07 Q0998 NOSIG
LYVR - Vršac, Srbija
Ažurirano: 02/12/2023 06:00
Vedro
Vedro
 Pravac vetra JI
Vetar: JI 44 km/h, Maks.: 67 km/h
Temperatura: 18°C
Tačka rose: 5°C
Vlažnost: 43%
Pritisak: 999 hPa
Pregled: Vedro
Vidljivost: greater than 10 km
2023/12/02 05:00 LYVR 020500Z AUTO 14024G36KT CAVOK 18/05 Q0999
 
LYKV - Lađevci, Srbija
Ažurirano: 02/12/2023 06:00
Vedro
Vedro
 Pravac vetra J
Vetar: J 13 km/h
Temperatura: 17°C
Tačka rose: 5°C
Vlažnost: 45%
Pritisak: 1001 hPa
Pregled: Vedro
Vidljivost: greater than 10 km
2023/12/02 05:00 LYKV 020500Z 17007KT 140V210 CAVOK 17/05 Q1001 NOSIG
LYNI - Niš, Srbija
Ažurirano: 02/12/2023 06:00
Vedro
Vedro
 Pravac vetra JI
Vetar: JI 13 km/h
Temperatura: 15°C
Tačka rose: 7°C
Vlažnost: 59%
Pritisak: 1005 hPa
Pregled: Vedro
Vidljivost: greater than 10 km
2023/12/02 05:00 LYNI 020500Z 14007KT 110V170 CAVOK 15/07 Q1005 NOSIG
BKPR - Priština, Srbija
Ažurirano: 02/12/2023 06:00
Vedro
Vedro
 Pravac vetra JI
Vetar: JI 6 km/h
Temperatura: 8°C
Tačka rose: 5°C
Vlažnost: 82%
Pritisak: 1007 hPa
Pregled: Vedro
Vidljivost: greater than 10 km
2023/12/02 05:00 BKPR 020500Z 14003KT 090V260 CAVOK 08/05 Q1007 NOSIG
 
LHPP - Pecs / Pogany, Hungary
Ažurirano: 02/12/2023 05:45
Magla, Oblačno
Magla, Oblačno
 Pravac vetra calm
Vetar: Tišina
Temperatura: 1°C
Tačka rose: 1°C
Vlažnost: 100%
Pritisak: 997 hPa
Pregled: Magla
Oblaci: Oblačno
Vidljivost: 1 km
Cloud details: Oblačno 30 m
2023/12/02 04:45 LHPP 020445Z AUTO 00000KT 0500 FG VV001 01/01 Q0997
LHUD - Szeged, Hungary
Ažurirano: 04/07/2019 01:45
NOT Current
Vedro
Vedro
 Pravac vetra S
Vetar: S 7 km/h
Temperatura: 18°C
Tačka rose: 13°C
Vlažnost: 73%
Pritisak: 1019 hPa
Pregled: Vedro
Vidljivost: greater than 10 km
2019/07/03 23:45 LHUD 032345Z 35004KT CAVOK 18/13 Q1019
LRTR - Timisoara, Romania
Ažurirano: 02/12/2023 06:00
Vedro
Vedro
 Pravac vetra J
Vetar: J 28 km/h
Temperatura: 16°C
Tačka rose: 6°C
Vlažnost: 52%
Pritisak: 999 hPa
Pregled: Vedro
Vidljivost: greater than 10 km
2023/12/02 05:00 LRTR 020500Z 17015KT CAVOK 16/06 Q0999
 
LRCV - Craiova, Romania
Ažurirano: 02/12/2023 06:00
Vedro
Vedro
 Pravac vetra I
Vetar: I 4 km/h
Temperatura: 3°C
Tačka rose: 3°C
Vlažnost: 100%
Pritisak: 1004 hPa
Pregled: Vedro
Vidljivost: greater than 10 km
2023/12/02 05:00 LRCV 020500Z 09002KT CAVOK 03/03 Q1004
LBSF - Sofia, Bulgaria
Ažurirano: 02/12/2023 06:00
Vedro
Vedro
 Pravac vetra I
Vetar: I 19 km/h
Temperatura: 8°C
Osećaj hladnoće: 4°C
Tačka rose: 5°C
Vlažnost: 82%
Pritisak: 1007 hPa
Pregled: Vedro
Vidljivost: greater than 10 km
2023/12/02 05:00 LBSF 020500Z 10010KT 050V130 CAVOK 08/05 Q1007 NOSIG
LWSK - Skoplje, Makedonija
Ažurirano: 02/12/2023 06:00
Mist, Delimično oblačno
Mist, Delimično oblačno
 Pravac vetra ISI
Vetar: ISI 2 km/h
Temperatura: 3°C
Tačka rose: 3°C
Vlažnost: 100%
Pritisak: 1009 hPa
Pregled: Mist
Oblaci: Partly Cloudy
Vidljivost: 3 km
Cloud details: Partly Cloudy 457 m
2023/12/02 05:00 LWSK 020500Z 06001KT 3000 BR SCT015 03/03 Q1009 NOSIG
 
LYPG - Podgorica, Crna Gora
Ažurirano: 02/12/2023 06:00
Mostly Cloudy
Mostly Cloudy
 Pravac vetra JJI
Vetar: JJI 26 km/h
Temperatura: 18°C
Tačka rose: 11°C
Vlažnost: 64%
Pritisak: 1009 hPa
Oblaci: Mostly Cloudy
Vidljivost: 10 km
Cloud details: Few Clouds 914 m
Mostly Cloudy 1524 m
2023/12/02 05:00 LYPG 020500Z 16014KT 9999 FEW030 BKN050 18/11 Q1009 NOSIG
LQSA - Sarajevo, Bosna i Hercegovina
Ažurirano: 02/12/2023 06:00
Vedro
Vedro
 Pravac vetra J
Vetar: J 52 km/h, Maks.: 93 km/h
Temperatura: 18°C
Tačka rose: 6°C
Vlažnost: 46%
Pritisak: 1000 hPa
Pregled: Vedro
Vidljivost: greater than 10 km
2023/12/02 05:00 LQSA 020500Z 19028G50KT CAVOK 18/06 Q1000 WS ALL RWY NOSIG
LDOS - Osijek, Hrvatksa
Ažurirano: 02/12/2023 06:00
Mist, Pretežno oblačno
Mist, Pretežno oblačno
 Pravac vetra SSZ
Vetar: SSZ 7 km/h
Temperatura: 3°C
Osećaj hladnoće: 1°C
Tačka rose: 3°C
Vlažnost: 100%
Pritisak: 997 hPa
Pregled: Mist
Oblaci: Mostly Cloudy
Vidljivost: 2 km
Cloud details: Mostly Cloudy 213 m
2023/12/02 05:00 LDOS 020500Z 33004KT 2000 BR BKN007 03/03 Q0997